createdAt,value
2019-02-26T00:01:20.671Z,28.10
2019-02-26T00:03:50.778Z,28.10
2019-02-26T00:06:22.790Z,28.20
2019-02-26T00:08:54.117Z,28.20
2019-02-26T00:11:26.700Z,28.10
2019-02-26T00:13:59.011Z,28.10
2019-02-26T00:16:29.652Z,28.10
2019-02-26T00:19:02.578Z,28.10
2019-02-26T00:21:32.324Z,28.10
2019-02-26T00:24:04.863Z,28.10
2019-02-26T00:26:36.320Z,28.10
2019-02-26T00:29:08.395Z,28.10
2019-02-26T00:31:39.256Z,28.10
2019-02-26T00:34:10.830Z,28.10
2019-02-26T00:36:41.952Z,28.10
2019-02-26T00:39:12.612Z,28.20
2019-02-26T00:41:43.177Z,28.20
2019-02-26T00:44:13.971Z,28.20
2019-02-26T00:46:44.575Z,28.20
2019-02-26T00:49:15.497Z,28.20
2019-02-26T00:51:48.237Z,28.20
2019-02-26T00:54:20.230Z,28.30
2019-02-26T00:56:50.720Z,28.30
2019-02-26T01:02:11.454Z,28.30
2019-02-26T01:04:51.021Z,28.40
2019-02-26T01:07:23.749Z,28.40
2019-02-26T01:09:54.697Z,28.40
2019-02-26T01:12:25.969Z,28.50
2019-02-26T01:14:56.531Z,28.50
2019-02-26T01:17:27.062Z,28.50
2019-02-26T01:19:58.800Z,28.60
2019-02-26T01:22:31.095Z,28.70
2019-02-26T01:25:02.505Z,28.70
2019-02-26T01:27:33.072Z,28.70
2019-02-26T01:30:03.704Z,28.80
2019-02-26T01:32:34.504Z,28.90
2019-02-26T01:35:06.013Z,28.90
2019-02-26T01:37:37.116Z,28.90
2019-02-26T01:40:26.623Z,28.90
2019-02-26T01:42:57.942Z,28.90
2019-02-26T01:45:30.441Z,28.90
2019-02-26T01:48:01.603Z,29.00
2019-02-26T01:50:33.425Z,29.00
2019-02-26T01:53:27.144Z,29.00
2019-02-26T01:55:57.161Z,29.00
2019-02-26T01:58:27.685Z,29.10
2019-02-26T02:00:58.482Z,29.10
2019-02-26T02:03:30.230Z,29.10
2019-02-26T02:06:01.077Z,29.20
2019-02-26T02:08:31.812Z,29.30
2019-02-26T02:11:04.257Z,29.20
2019-02-26T02:13:35.858Z,29.20
2019-02-26T02:16:07.140Z,29.20
2019-02-26T02:18:38.780Z,29.20
2019-02-26T02:21:09.526Z,29.30
2019-02-26T02:23:42.000Z,29.30
2019-02-26T02:26:13.926Z,29.30
2019-02-26T02:28:44.938Z,29.30
2019-02-26T02:31:15.425Z,29.30
2019-02-26T02:33:48.890Z,29.40
2019-02-26T02:36:22.520Z,29.50
2019-02-26T02:38:51.429Z,29.50
2019-02-26T02:41:22.148Z,29.50
2019-02-26T02:43:52.795Z,29.60
2019-02-26T02:46:23.429Z,29.70
2019-02-26T02:48:54.092Z,29.70
2019-02-26T02:54:41.258Z,29.80
2019-02-26T02:57:12.360Z,29.80
2019-02-26T02:59:45.122Z,29.80
2019-02-26T03:02:17.813Z,29.80
2019-02-26T03:04:48.932Z,29.80
2019-02-26T03:07:20.858Z,29.80
2019-02-26T03:09:52.434Z,29.70
2019-02-26T03:12:25.857Z,29.80
2019-02-26T03:14:58.873Z,29.80
2019-02-26T03:17:28.562Z,29.90
2019-02-26T03:20:01.627Z,30.00
2019-02-26T03:22:33.358Z,30.10
2019-02-26T03:25:03.312Z,30.00
2019-02-26T03:27:36.303Z,30.10
2019-02-26T03:30:08.905Z,30.10
2019-02-26T03:32:41.245Z,30.20
2019-02-26T03:35:13.243Z,30.30
2019-02-26T03:37:43.849Z,30.40
2019-02-26T03:40:15.192Z,30.40
2019-02-26T03:42:46.258Z,30.50
2019-02-26T03:45:23.509Z,30.50
2019-02-26T03:47:50.705Z,30.60
2019-02-26T03:50:21.411Z,30.60
2019-02-26T03:52:52.068Z,30.70
2019-02-26T03:55:24.488Z,30.80
2019-02-26T03:57:57.131Z,30.80
2019-02-26T04:00:27.475Z,30.90
2019-02-26T04:02:58.250Z,30.90
2019-02-26T04:05:28.788Z,30.90
2019-02-26T04:08:01.573Z,31.00
2019-02-26T04:10:31.701Z,31.00
2019-02-26T04:13:02.275Z,31.10
2019-02-26T04:15:38.375Z,31.10
2019-02-26T04:18:08.723Z,31.10
2019-02-26T04:20:43.559Z,31.20
2019-02-26T04:23:13.321Z,31.40
2019-02-26T04:26:07.351Z,31.40
2019-02-26T04:28:47.528Z,31.50
2019-02-26T04:31:30.049Z,31.70
2019-02-26T04:34:23.327Z,31.80
2019-02-26T04:36:59.189Z,31.80
2019-02-26T04:39:40.336Z,31.90
2019-02-26T04:42:19.736Z,31.90
2019-02-26T04:45:08.723Z,32.00
2019-02-26T04:47:43.214Z,31.90
2019-02-26T04:50:15.200Z,31.90
2019-02-26T04:52:45.772Z,31.90
2019-02-26T04:55:16.446Z,32.00
2019-02-26T04:57:49.071Z,32.00
2019-02-26T05:00:19.738Z,32.00
2019-02-26T05:02:50.326Z,32.00
2019-02-26T05:05:25.124Z,32.10
2019-02-26T05:07:54.666Z,32.10
2019-02-26T05:10:27.066Z,32.30
2019-02-26T05:13:00.322Z,32.20
2019-02-26T05:15:31.110Z,32.10
2019-02-26T05:18:01.921Z,32.10
2019-02-26T05:20:34.081Z,32.10
2019-02-26T05:23:06.340Z,32.10
2019-02-26T05:25:39.282Z,32.00
2019-02-26T05:28:11.731Z,31.90
2019-02-26T05:30:43.871Z,31.90
2019-02-26T05:33:13.846Z,32.00
2019-02-26T05:35:46.254Z,32.00
2019-02-26T05:38:16.539Z,32.00
2019-02-26T05:40:48.209Z,32.10
2019-02-26T05:43:20.425Z,32.10
2019-02-26T05:45:54.011Z,32.10
2019-02-26T05:48:25.796Z,32.20
2019-02-26T05:50:57.368Z,32.30
2019-02-26T05:53:27.731Z,32.50
2019-02-26T05:55:58.228Z,32.60
2019-02-26T05:58:30.192Z,32.60
2019-02-26T06:01:00.844Z,32.70
2019-02-26T06:03:31.372Z,32.80
2019-02-26T06:06:02.331Z,32.90
2019-02-26T06:08:33.947Z,32.80
2019-02-26T06:11:04.818Z,32.90
2019-02-26T06:13:37.775Z,33.00
2019-02-26T06:16:07.642Z,32.90
2019-02-26T06:18:41.156Z,33.00
2019-02-26T06:21:10.557Z,32.90
2019-02-26T06:23:43.162Z,33.00
2019-02-26T06:26:14.850Z,33.20
2019-02-26T06:28:48.027Z,33.20
2019-02-26T06:31:19.885Z,33.30
2019-02-26T06:33:50.731Z,33.20
2019-02-26T06:36:23.328Z,33.30
2019-02-26T06:38:54.160Z,33.40
2019-02-26T06:41:25.626Z,33.40
2019-02-26T06:43:56.172Z,33.30
2019-02-26T06:46:28.818Z,33.30
2019-02-26T06:48:58.953Z,33.40
2019-02-26T06:51:30.788Z,33.50
2019-02-26T06:54:01.651Z,33.50
2019-02-26T06:56:34.422Z,33.50
2019-02-26T06:59:12.065Z,33.50
2019-02-26T07:01:42.173Z,33.40
2019-02-26T07:04:13.068Z,33.50
2019-02-26T07:06:44.029Z,33.50
2019-02-26T07:09:16.383Z,33.50
2019-02-26T07:11:46.561Z,33.50
2019-02-26T07:14:17.257Z,33.50
2019-02-26T07:16:47.792Z,33.60
2019-02-26T07:19:18.547Z,33.50
2019-02-26T07:22:11.179Z,33.50
2019-02-26T07:24:41.798Z,33.50
2019-02-26T07:27:13.902Z,33.50
2019-02-26T07:29:45.724Z,33.60
2019-02-26T07:32:38.342Z,33.50
2019-02-26T07:35:13.557Z,33.50
2019-02-26T07:37:43.522Z,33.40
2019-02-26T07:40:16.029Z,33.40
2019-02-26T07:46:17.049Z,33.40
2019-02-26T07:48:48.864Z,33.40
2019-02-26T07:51:18.984Z,33.30
2019-02-26T07:53:51.625Z,33.30
2019-02-26T07:56:23.194Z,33.30
2019-02-26T07:58:56.993Z,33.20
2019-02-26T08:01:26.207Z,33.30
2019-02-26T08:03:56.723Z,33.30
2019-02-26T08:06:29.206Z,33.30
2019-02-26T08:08:59.762Z,33.20
2019-02-26T08:11:30.288Z,33.20
2019-02-26T08:14:01.556Z,33.00
2019-02-26T08:16:32.392Z,32.90
2019-02-26T08:19:03.002Z,32.80
2019-02-26T08:21:33.539Z,32.60
2019-02-26T08:24:04.243Z,32.50
2019-02-26T08:26:54.998Z,32.40
2019-02-26T08:29:27.170Z,32.30
2019-02-26T08:31:59.348Z,32.10
2019-02-26T08:34:30.430Z,31.90
2019-02-26T08:37:00.989Z,31.80
2019-02-26T08:39:31.541Z,31.70
2019-02-26T08:42:07.539Z,31.60
2019-02-26T08:44:38.152Z,31.50
2019-02-26T08:47:27.949Z,31.30
2019-02-26T08:49:59.017Z,31.30
2019-02-26T08:52:30.593Z,31.20
2019-02-26T08:55:01.544Z,31.20
2019-02-26T08:57:32.160Z,31.20
2019-02-26T09:00:03.151Z,31.20
2019-02-26T09:03:13.816Z,31.20
2019-02-26T09:06:12.895Z,31.20
2019-02-26T09:08:40.442Z,31.20
2019-02-26T09:11:13.382Z,31.20
2019-02-26T09:13:44.213Z,31.20
2019-02-26T09:16:15.446Z,31.20
2019-02-26T09:18:46.568Z,31.20
2019-02-26T09:21:18.180Z,31.30
2019-02-26T09:23:49.912Z,31.30
2019-02-26T09:26:21.704Z,31.30
2019-02-26T09:28:53.148Z,31.30
2019-02-26T09:31:24.230Z,31.30
2019-02-26T09:33:55.180Z,31.30
2019-02-26T09:36:28.251Z,31.30
2019-02-26T09:38:58.314Z,31.20
2019-02-26T09:41:28.910Z,31.20
2019-02-26T09:44:01.909Z,31.20
2019-02-26T09:46:33.568Z,31.20
2019-02-26T09:49:14.736Z,31.20
2019-02-26T09:54:26.877Z,31.20
2019-02-26T09:56:57.652Z,31.20
2019-02-26T09:59:29.106Z,31.20
2019-02-26T10:02:01.286Z,31.20
2019-02-26T10:04:32.770Z,31.10
2019-02-26T10:07:04.294Z,31.10
2019-02-26T10:09:37.391Z,31.20
2019-02-26T10:12:09.775Z,31.20
2019-02-26T10:14:40.980Z,31.10
2019-02-26T10:17:13.806Z,31.00
2019-02-26T10:19:43.614Z,31.00
2019-02-26T10:22:14.299Z,30.90
2019-02-26T10:24:44.797Z,30.90
2019-02-26T10:27:16.411Z,30.80
2019-02-26T10:29:47.626Z,30.90
2019-02-26T10:32:19.252Z,30.80
2019-02-26T10:34:50.000Z,30.80
2019-02-26T10:37:21.451Z,30.80
2019-02-26T10:39:54.871Z,30.70
2019-02-26T10:42:29.389Z,30.60
2019-02-26T10:44:59.898Z,30.60
2019-02-26T10:47:32.241Z,30.50
2019-02-26T10:50:02.559Z,30.60
2019-02-26T10:52:33.024Z,30.50
2019-02-26T10:55:03.530Z,30.40
2019-02-26T10:57:36.064Z,30.30
2019-02-26T11:00:30.271Z,30.30
2019-02-26T11:02:59.473Z,30.30
2019-02-26T11:05:30.328Z,30.30
2019-02-26T11:08:02.979Z,30.30
2019-02-26T11:10:33.085Z,30.30
2019-02-26T11:13:03.795Z,30.30
2019-02-26T11:15:36.020Z,30.20
2019-02-26T11:18:08.080Z,30.20
2019-02-26T11:20:38.524Z,30.10
2019-02-26T11:23:13.263Z,30.10
2019-02-26T11:25:42.385Z,30.10
2019-02-26T11:28:13.095Z,30.10
2019-02-26T11:30:46.101Z,30.00
2019-02-26T11:33:40.633Z,30.00
2019-02-26T11:36:13.103Z,30.00
2019-02-26T11:38:44.613Z,29.90
2019-02-26T11:41:16.047Z,29.90
2019-02-26T11:43:47.862Z,29.90
2019-02-26T11:46:19.992Z,29.90
2019-02-26T11:48:52.443Z,29.90
2019-02-26T11:51:22.403Z,29.80
2019-02-26T11:53:52.933Z,29.80
2019-02-26T11:56:25.704Z,29.80
2019-02-26T11:58:55.956Z,29.70
2019-02-26T12:01:27.015Z,29.70
2019-02-26T12:04:03.274Z,29.70
2019-02-26T12:06:30.682Z,29.70
2019-02-26T12:09:03.031Z,29.70
2019-02-26T12:11:33.469Z,29.70
2019-02-26T12:14:04.038Z,29.70
2019-02-26T12:16:34.542Z,29.60
2019-02-26T12:19:06.096Z,29.60
2019-02-26T12:21:37.384Z,29.60
2019-02-26T12:24:09.102Z,29.50
2019-02-26T12:26:42.353Z,29.50
2019-02-26T12:29:12.136Z,29.50
2019-02-26T12:31:42.784Z,29.40
2019-02-26T12:34:14.609Z,29.40
2019-02-26T12:36:48.063Z,29.40
2019-02-26T12:39:18.771Z,29.40
2019-02-26T12:41:50.441Z,29.40
2019-02-26T12:44:21.018Z,29.40
2019-02-26T12:46:53.804Z,29.40
2019-02-26T12:49:24.077Z,29.30
2019-02-26T12:51:56.706Z,29.30
2019-02-26T12:54:29.458Z,29.40
2019-02-26T12:57:00.433Z,29.40
2019-02-26T12:59:30.980Z,29.40
2019-02-26T13:02:01.745Z,29.30
2019-02-26T13:04:32.280Z,29.30
2019-02-26T13:07:05.562Z,29.30
2019-02-26T13:09:39.104Z,29.30
2019-02-26T13:12:07.449Z,29.30
2019-02-26T13:14:40.042Z,29.30
2019-02-26T13:17:13.675Z,29.20
2019-02-26T13:23:34.879Z,29.20
2019-02-26T13:26:08.411Z,29.30
2019-02-26T13:28:38.007Z,29.20
2019-02-26T13:31:13.557Z,29.20
2019-02-26T13:33:42.420Z,29.20
2019-02-26T13:36:13.236Z,29.20
2019-02-26T13:38:45.898Z,29.20
2019-02-26T13:41:38.659Z,29.20
2019-02-26T13:43:48.452Z,29.20
2019-02-26T13:46:19.041Z,29.20
2019-02-26T13:48:49.938Z,29.10
2019-02-26T13:51:20.551Z,29.10
2019-02-26T13:53:51.070Z,29.20
2019-02-26T13:56:23.056Z,29.10
2019-02-26T13:58:53.777Z,29.00
2019-02-26T14:01:43.223Z,29.00
2019-02-26T14:04:13.810Z,29.00
2019-02-26T14:06:44.423Z,29.00
2019-02-26T14:09:15.334Z,29.00
2019-02-26T14:11:56.533Z,29.00
2019-02-26T14:14:27.245Z,29.00
2019-02-26T14:16:57.813Z,29.00
2019-02-26T14:19:48.607Z,29.10
2019-02-26T14:22:19.350Z,29.10
2019-02-26T14:24:50.001Z,29.00
2019-02-26T14:27:20.937Z,29.00
2019-02-26T14:30:11.646Z,29.00
2019-02-26T14:32:42.492Z,29.00
2019-02-26T14:35:15.328Z,29.00
2019-02-26T14:37:46.160Z,29.10
2019-02-26T14:40:22.067Z,29.10
2019-02-26T14:42:52.261Z,29.00
2019-02-26T14:45:24.531Z,29.00
2019-02-26T14:47:55.133Z,29.00
2019-02-26T14:50:26.493Z,29.00
2019-02-26T14:52:58.018Z,29.00
2019-02-26T14:55:30.167Z,29.00
2019-02-26T14:58:01.222Z,29.00
2019-02-26T15:00:33.138Z,28.90
2019-02-26T15:05:48.653Z,29.00
2019-02-26T15:08:19.413Z,29.00
2019-02-26T15:10:51.411Z,29.00
2019-02-26T15:13:22.457Z,29.00
2019-02-26T15:15:55.994Z,28.90
2019-02-26T15:18:26.794Z,28.90
2019-02-26T15:20:59.904Z,28.90
2019-02-26T15:23:30.756Z,28.80
2019-02-26T15:26:01.589Z,28.80
2019-02-26T15:28:33.547Z,28.80
2019-02-26T15:31:04.585Z,28.80
2019-02-26T15:33:35.130Z,28.90
2019-02-26T15:36:05.635Z,28.80
2019-02-26T15:38:36.368Z,28.80
2019-02-26T15:41:07.246Z,28.80
2019-02-26T15:43:38.378Z,28.90
2019-02-26T15:46:09.299Z,28.90
2019-02-26T15:48:40.053Z,28.80
2019-02-26T15:51:14.258Z,28.80
2019-02-26T15:53:42.893Z,28.80
2019-02-26T15:56:13.461Z,28.80
2019-02-26T15:58:44.021Z,28.70
2019-02-26T16:01:15.200Z,28.80
2019-02-26T16:03:46.686Z,28.80
2019-02-26T16:06:17.337Z,28.80
2019-02-26T16:08:48.049Z,28.80
2019-02-26T16:11:18.605Z,28.80
2019-02-26T16:13:49.548Z,28.80
2019-02-26T16:16:20.256Z,28.70
2019-02-26T16:18:50.820Z,28.70
2019-02-26T16:21:21.453Z,28.70
2019-02-26T16:23:52.462Z,28.70
2019-02-26T16:26:23.028Z,28.60
2019-02-26T16:28:53.552Z,28.60
2019-02-26T16:31:24.479Z,28.60
2019-02-26T16:33:56.170Z,28.70
2019-02-26T16:36:31.671Z,28.70
2019-02-26T16:39:01.853Z,28.60
2019-02-26T16:41:32.444Z,28.70
2019-02-26T16:44:03.140Z,28.70
2019-02-26T16:46:34.100Z,28.70
2019-02-26T16:49:04.665Z,28.70
2019-02-26T16:51:35.362Z,28.70
2019-02-26T16:54:07.395Z,28.60
2019-02-26T16:56:37.988Z,28.60
2019-02-26T16:59:08.782Z,28.60
2019-02-26T17:01:39.445Z,28.60
2019-02-26T17:04:10.092Z,28.60
2019-02-26T17:06:40.856Z,28.60
2019-02-26T17:09:11.339Z,28.50
2019-02-26T17:11:42.002Z,28.60
2019-02-26T17:14:14.762Z,28.50
2019-02-26T17:16:44.970Z,28.60
2019-02-26T17:19:16.078Z,28.60
2019-02-26T17:21:46.776Z,28.60
2019-02-26T17:24:18.452Z,28.60
2019-02-26T17:26:49.436Z,28.50
2019-02-26T17:29:20.011Z,28.50
2019-02-26T17:31:50.533Z,28.50
2019-02-26T17:34:23.460Z,28.50
2019-02-26T17:36:53.418Z,28.60
2019-02-26T17:39:25.966Z,28.50
2019-02-26T17:42:37.727Z,28.60
2019-02-26T17:45:10.815Z,28.50
2019-02-26T17:47:41.888Z,28.50
2019-02-26T17:50:14.637Z,28.40
2019-02-26T17:53:00.481Z,28.50
2019-02-26T17:55:30.952Z,28.50
2019-02-26T17:58:01.494Z,28.50
2019-02-26T18:00:33.560Z,28.50
2019-02-26T18:03:07.247Z,28.40
2019-02-26T18:05:39.315Z,28.40
2019-02-26T18:08:08.214Z,28.30
2019-02-26T18:10:38.752Z,28.30
2019-02-26T18:13:09.435Z,28.30
2019-02-26T18:15:40.013Z,28.30
2019-02-26T18:18:10.848Z,28.40
2019-02-26T18:20:41.545Z,28.30
2019-02-26T18:23:12.127Z,28.40
2019-02-26T18:25:42.640Z,28.30
2019-02-26T18:28:13.346Z,28.30
2019-02-26T18:30:43.888Z,28.30
2019-02-26T18:33:14.549Z,28.30
2019-02-26T18:35:45.689Z,28.30
2019-02-26T18:38:17.400Z,28.20
2019-02-26T18:40:48.076Z,28.20
2019-02-26T18:43:18.782Z,28.20
2019-02-26T18:45:49.360Z,28.20
2019-02-26T18:48:19.891Z,28.20
2019-02-26T18:50:50.984Z,28.30
2019-02-26T18:53:21.553Z,28.30
2019-02-26T18:55:52.088Z,28.30
2019-02-26T18:58:22.878Z,28.30
2019-02-26T19:00:53.452Z,28.20
2019-02-26T19:03:24.969Z,28.30
2019-02-26T19:05:55.790Z,28.30
2019-02-26T19:08:26.381Z,28.20
2019-02-26T19:11:16.727Z,28.20
2019-02-26T19:13:55.891Z,28.20
2019-02-26T19:16:26.604Z,28.10
2019-02-26T19:18:57.488Z,28.10
2019-02-26T19:21:28.105Z,28.10
2019-02-26T19:23:58.810Z,28.00
2019-02-26T19:26:29.391Z,28.00
2019-02-26T19:29:00.024Z,28.00
2019-02-26T19:31:30.822Z,28.10
2019-02-26T19:34:01.357Z,28.10
2019-02-26T19:36:32.129Z,28.10
2019-02-26T19:39:03.037Z,28.00
2019-02-26T19:41:33.694Z,28.00
2019-02-26T19:44:27.416Z,28.00
2019-02-26T19:46:58.093Z,28.00
2019-02-26T19:49:28.599Z,28.00
2019-02-26T19:51:59.641Z,28.00
2019-02-26T19:54:30.204Z,28.00
2019-02-26T19:57:00.732Z,28.00
2019-02-26T19:59:31.534Z,28.00
2019-02-26T20:02:02.209Z,28.00
2019-02-26T20:04:32.957Z,28.00
2019-02-26T20:07:03.836Z,28.00
2019-02-26T20:09:38.433Z,28.00
2019-02-26T20:12:06.657Z,28.10
2019-02-26T20:14:37.327Z,28.10
2019-02-26T20:17:14.578Z,28.00
2019-02-26T20:19:40.261Z,28.00
2019-02-26T20:22:10.829Z,27.90
2019-02-26T20:24:41.382Z,27.90
2019-02-26T20:27:12.079Z,27.90
2019-02-26T20:30:02.768Z,27.90
2019-02-26T20:32:33.552Z,27.90
2019-02-26T20:35:04.093Z,27.90
2019-02-26T20:37:34.623Z,27.90
2019-02-26T20:40:05.722Z,27.90
2019-02-26T20:42:45.913Z,27.90
2019-02-26T20:45:18.698Z,27.90
2019-02-26T20:47:49.444Z,27.90
2019-02-26T20:50:21.070Z,27.90
2019-02-26T20:52:52.719Z,27.90
2019-02-26T20:55:28.444Z,27.90
2019-02-26T20:57:59.219Z,27.90
2019-02-26T21:00:29.786Z,27.90
2019-02-26T21:03:00.279Z,27.90
2019-02-26T21:05:30.983Z,27.90
2019-02-26T21:08:01.573Z,27.90
2019-02-26T21:10:33.412Z,27.90
2019-02-26T21:13:04.210Z,27.90
2019-02-26T21:15:36.024Z,27.90
2019-02-26T21:18:06.665Z,27.90
2019-02-26T21:20:38.756Z,27.90
2019-02-26T21:23:09.786Z,27.80
2019-02-26T21:25:44.021Z,27.90
2019-02-26T21:28:13.253Z,27.90
2019-02-26T21:30:45.807Z,27.80
2019-02-26T21:33:15.902Z,27.80
2019-02-26T21:35:46.561Z,27.80
2019-02-26T21:38:17.156Z,27.90
2019-02-26T21:40:49.725Z,27.80
2019-02-26T21:43:19.888Z,27.80
2019-02-26T21:45:50.612Z,27.80
2019-02-26T21:48:21.229Z,27.80
2019-02-26T21:50:54.449Z,27.80
2019-02-26T21:53:24.658Z,27.80
2019-02-26T21:55:55.694Z,27.80
2019-02-26T21:58:26.844Z,27.70
2019-02-26T22:00:58.192Z,27.70
2019-02-26T22:03:29.234Z,27.70
2019-02-26T22:06:05.384Z,27.70
2019-02-26T22:08:31.821Z,27.70
2019-02-26T22:11:02.625Z,27.70
2019-02-26T22:13:33.159Z,27.70
2019-02-26T22:16:03.716Z,27.70
2019-02-26T22:18:34.465Z,27.70
2019-02-26T22:21:05.092Z,27.70
2019-02-26T22:23:35.924Z,27.70
2019-02-26T22:26:06.629Z,27.70
2019-02-26T22:28:39.670Z,27.70
2019-02-26T22:31:09.196Z,27.70
2019-02-26T22:33:40.749Z,27.60
2019-02-26T22:36:11.850Z,27.60
2019-02-26T22:38:42.810Z,27.60
2019-02-26T22:41:13.529Z,27.60
2019-02-26T22:43:44.812Z,27.60
2019-02-26T22:46:16.299Z,27.60
2019-02-26T22:48:47.592Z,27.60
2019-02-26T22:51:18.719Z,27.50
2019-02-26T22:53:49.936Z,27.60
2019-02-26T22:56:21.918Z,27.50
2019-02-26T22:58:52.468Z,27.50
2019-02-26T23:01:30.619Z,27.50
2019-02-26T23:03:57.231Z,27.50
2019-02-26T23:06:29.541Z,27.50
2019-02-26T23:08:59.989Z,27.50
2019-02-26T23:11:32.557Z,27.50
2019-02-26T23:14:02.631Z,27.50
2019-02-26T23:16:35.002Z,27.50
2019-02-26T23:19:05.636Z,27.50
2019-02-26T23:21:36.565Z,27.50
2019-02-26T23:24:07.379Z,27.50
2019-02-26T23:26:41.664Z,27.40
2019-02-26T23:29:10.793Z,27.50
2019-02-26T23:31:41.568Z,27.40
2019-02-26T23:34:12.066Z,27.40
2019-02-26T23:36:42.892Z,27.40
2019-02-26T23:39:14.448Z,27.40
2019-02-26T23:41:44.984Z,27.40
2019-02-26T23:44:18.001Z,27.40
2019-02-26T23:46:48.039Z,27.40
2019-02-26T23:49:18.667Z,27.30
2019-02-26T23:52:08.756Z,27.30
2019-02-26T23:54:39.936Z,27.30
2019-02-26T23:57:11.197Z,27.30
2019-02-26T23:59:41.940Z,27.30
